sensor_id;sensor_type;location;lat;lon;timestamp;pressure;altitude;pressure_sealevel;temperature;humidity
28181;BME280;15464;50.988;10.318;2024-02-04T00:01:30;99487.59;;;8.00;100.00
28181;BME280;15464;50.988;10.318;2024-02-04T00:03:57;99477.03;;;8.00;100.00
28181;BME280;15464;50.988;10.318;2024-02-04T00:06:24;99481.38;;;8.01;100.00
28181;BME280;15464;50.988;10.318;2024-02-04T00:08:51;99482.03;;;8.05;100.00
28181;BME280;15464;50.988;10.318;2024-02-04T00:11:18;99478.34;;;8.07;100.00
28181;BME280;15464;50.988;10.318;2024-02-04T00:13:45;99491.63;;;8.06;100.00
28181;BME280;15464;50.988;10.318;2024-02-04T00:16:12;99481.91;;;8.06;100.00
28181;BME280;15464;50.988;10.318;2024-02-04T00:18:38;99492.69;;;8.03;100.00
28181;BME280;15464;50.988;10.318;2024-02-04T00:21:05;99481.47;;;8.00;100.00
28181;BME280;15464;50.988;10.318;2024-02-04T00:23:32;99478.84;;;8.00;100.00
28181;BME280;15464;50.988;10.318;2024-02-04T00:25:59;99478.28;;;7.95;100.00
28181;BME280;15464;50.988;10.318;2024-02-04T00:28:25;99477.44;;;7.94;100.00
28181;BME280;15464;50.988;10.318;2024-02-04T00:30:54;99468.06;;;8.03;100.00
28181;BME280;15464;50.988;10.318;2024-02-04T00:33:22;99471.75;;;8.00;100.00
28181;BME280;15464;50.988;10.318;2024-02-04T00:35:49;99462.88;;;8.01;100.00
28181;BME280;15464;50.988;10.318;2024-02-04T00:38:16;99462.16;;;7.99;100.00
28181;BME280;15464;50.988;10.318;2024-02-04T00:40:42;99454.56;;;8.07;100.00
28181;BME280;15464;50.988;10.318;2024-02-04T00:43:12;99444.31;;;8.03;100.00
28181;BME280;15464;50.988;10.318;2024-02-04T00:45:38;99452.72;;;7.95;100.00
28181;BME280;15464;50.988;10.318;2024-02-04T00:48:05;99446.06;;;7.90;100.00
28181;BME280;15464;50.988;10.318;2024-02-04T00:50:32;99445.97;;;7.91;100.00
28181;BME280;15464;50.988;10.318;2024-02-04T00:52:58;99448.63;;;7.91;100.00
28181;BME280;15464;50.988;10.318;2024-02-04T00:55:25;99439.84;;;7.91;100.00
28181;BME280;15464;50.988;10.318;2024-02-04T00:57:52;99435.41;;;7.91;100.00
28181;BME280;15464;50.988;10.318;2024-02-04T01:00:19;99429.06;;;7.94;100.00
28181;BME280;15464;50.988;10.318;2024-02-04T01:02:45;99422.09;;;7.93;100.00
28181;BME280;15464;50.988;10.318;2024-02-04T01:05:12;99426.31;;;7.95;100.00
28181;BME280;15464;50.988;10.318;2024-02-04T01:07:41;99426.13;;;7.98;100.00
28181;BME280;15464;50.988;10.318;2024-02-04T01:10:08;99418.41;;;7.95;100.00
28181;BME280;15464;50.988;10.318;2024-02-04T01:12:36;99425.19;;;7.99;100.00
28181;BME280;15464;50.988;10.318;2024-02-04T01:15:03;99423.25;;;8.01;100.00
28181;BME280;15464;50.988;10.318;2024-02-04T01:17:32;99415.16;;;8.04;100.00
28181;BME280;15464;50.988;10.318;2024-02-04T01:20:00;99406.06;;;8.08;100.00
28181;BME280;15464;50.988;10.318;2024-02-04T01:22:27;99413.44;;;8.03;100.00
28181;BME280;15464;50.988;10.318;2024-02-04T01:24:54;99418.50;;;8.06;100.00
28181;BME280;15464;50.988;10.318;2024-02-04T01:27:21;99416.13;;;8.16;100.00
28181;BME280;15464;50.988;10.318;2024-02-04T01:29:47;99416.31;;;8.13;100.00
28181;BME280;15464;50.988;10.318;2024-02-04T01:32:14;99424.47;;;8.23;100.00
28181;BME280;15464;50.988;10.318;2024-02-04T01:34:41;99425.59;;;8.19;100.00
28181;BME280;15464;50.988;10.318;2024-02-04T01:37:08;99414.84;;;8.22;100.00
28181;BME280;15464;50.988;10.318;2024-02-04T01:39:34;99423.19;;;8.16;100.00
28181;BME280;15464;50.988;10.318;2024-02-04T01:42:01;99422.44;;;8.26;100.00
28181;BME280;15464;50.988;10.318;2024-02-04T01:44:28;99415.59;;;8.24;100.00
28181;BME280;15464;50.988;10.318;2024-02-04T01:46:55;99422.34;;;8.28;100.00
28181;BME280;15464;50.988;10.318;2024-02-04T01:49:21;99413.47;;;8.29;100.00
28181;BME280;15464;50.988;10.318;2024-02-04T01:51:49;99429.34;;;8.29;100.00
28181;BME280;15464;50.988;10.318;2024-02-04T01:54:16;99418.44;;;8.21;100.00
28181;BME280;15464;50.988;10.318;2024-02-04T01:56:46;99418.44;;;8.21;100.00
28181;BME280;15464;50.988;10.318;2024-02-04T01:59:13;99430.16;;;8.17;100.00
28181;BME280;15464;50.988;10.318;2024-02-04T02:01:41;99430.16;;;8.17;100.00
28181;BME280;15464;50.988;10.318;2024-02-04T02:04:08;99433.75;;;8.16;100.00
28181;BME280;15464;50.988;10.318;2024-02-04T02:06:35;99431.13;;;8.16;100.00
28181;BME280;15464;50.988;10.318;2024-02-04T02:09:08;99432.06;;;8.15;100.00
28181;BME280;15464;50.988;10.318;2024-02-04T02:11:41;99439.91;;;8.29;100.00
28181;BME280;15464;50.988;10.318;2024-02-04T02:14:23;99451.31;;;8.29;100.00
28181;BME280;15464;50.988;10.318;2024-02-04T02:16:56;99455.97;;;8.26;100.00
28181;BME280;15464;50.988;10.318;2024-02-04T02:24:43;99440.38;;;8.35;100.00
28181;BME280;15464;50.988;10.318;2024-02-04T02:27:12;99450.09;;;8.35;100.00
28181;BME280;15464;50.988;10.318;2024-02-04T02:29:39;99443.97;;;8.34;100.00
28181;BME280;15464;50.988;10.318;2024-02-04T02:32:06;99431.38;;;8.38;100.00
28181;BME280;15464;50.988;10.318;2024-02-04T02:34:33;99421.53;;;8.40;100.00
28181;BME280;15464;50.988;10.318;2024-02-04T02:40:16;99428.38;;;8.30;100.00
28181;BME280;15464;50.988;10.318;2024-02-04T02:42:46;99427.44;;;8.31;100.00
28181;BME280;15464;50.988;10.318;2024-02-04T02:45:15;99420.47;;;8.30;100.00
28181;BME280;15464;50.988;10.318;2024-02-04T02:47:44;99418.56;;;8.32;100.00
28181;BME280;15464;50.988;10.318;2024-02-04T02:50:11;99409.78;;;8.31;100.00
28181;BME280;15464;50.988;10.318;2024-02-04T02:52:38;99396.28;;;8.36;100.00
28181;BME280;15464;50.988;10.318;2024-02-04T02:55:05;99412.34;;;8.33;100.00
28181;BME280;15464;50.988;10.318;2024-02-04T02:57:32;99410.78;;;8.30;100.00
28181;BME280;15464;50.988;10.318;2024-02-04T02:59:59;99404.50;;;8.31;100.00
28181;BME280;15464;50.988;10.318;2024-02-04T03:02:25;99394.59;;;8.35;100.00
28181;BME280;15464;50.988;10.318;2024-02-04T03:04:52;99399.97;;;8.33;100.00
28181;BME280;15464;50.988;10.318;2024-02-04T03:07:19;99385.81;;;8.34;100.00
28181;BME280;15464;50.988;10.318;2024-02-04T03:09:45;99386.34;;;8.39;100.00
28181;BME280;15464;50.988;10.318;2024-02-04T03:12:12;99389.63;;;8.43;100.00
28181;BME280;15464;50.988;10.318;2024-02-04T03:14:39;99391.53;;;8.41;100.00
28181;BME280;15464;50.988;10.318;2024-02-04T03:17:06;99386.84;;;8.44;100.00
28181;BME280;15464;50.988;10.318;2024-02-04T03:19:32;99389.81;;;8.40;100.00
28181;BME280;15464;50.988;10.318;2024-02-04T03:21:59;99389.22;;;8.36;100.00
28181;BME280;15464;50.988;10.318;2024-02-04T03:24:26;99407.72;;;8.36;100.00
28181;BME280;15464;50.988;10.318;2024-02-04T03:26:53;99406.97;;;8.34;100.00
28181;BME280;15464;50.988;10.318;2024-02-04T03:29:19;99409.88;;;8.30;100.00
28181;BME280;15464;50.988;10.318;2024-02-04T03:31:46;99411.78;;;8.28;100.00
28181;BME280;15464;50.988;10.318;2024-02-04T03:34:13;99409.56;;;8.22;100.00
28181;BME280;15464;50.988;10.318;2024-02-04T03:36:40;99408.63;;;8.23;100.00
28181;BME280;15464;50.988;10.318;2024-02-04T03:39:07;99407.97;;;8.19;100.00
28181;BME280;15464;50.988;10.318;2024-02-04T03:41:33;99393.91;;;8.19;100.00
28181;BME280;15464;50.988;10.318;2024-02-04T03:44:00;99400.59;;;8.12;100.00
28181;BME280;15464;50.988;10.318;2024-02-04T03:46:27;99401.31;;;8.14;100.00
28181;BME280;15464;50.988;10.318;2024-02-04T03:48:53;99403.00;;;8.15;100.00
28181;BME280;15464;50.988;10.318;2024-02-04T03:51:20;99394.22;;;8.14;100.00
28181;BME280;15464;50.988;10.318;2024-02-04T03:53:48;99394.31;;;8.13;100.00
28181;BME280;15464;50.988;10.318;2024-02-04T03:56:15;99389.16;;;8.11;100.00
28181;BME280;15464;50.988;10.318;2024-02-04T03:58:42;99392.09;;;8.06;100.00
28181;BME280;15464;50.988;10.318;2024-02-04T04:01:12;99378.16;;;8.04;100.00
28181;BME280;15464;50.988;10.318;2024-02-04T04:03:40;99378.34;;;8.01;100.00
28181;BME280;15464;50.988;10.318;2024-02-04T04:06:09;99373.81;;;8.03;100.00
28181;BME280;15464;50.988;10.318;2024-02-04T04:08:37;99387.78;;;8.05;100.00
28181;BME280;15464;50.988;10.318;2024-02-04T04:11:04;99381.53;;;8.06;100.00
28181;BME280;15464;50.988;10.318;2024-02-04T04:13:30;99375.94;;;8.11;100.00
28181;BME280;15464;50.988;10.318;2024-02-04T04:16:05;99383.88;;;8.11;100.00
28181;BME280;15464;50.988;10.318;2024-02-04T04:18:32;99383.03;;;8.10;100.00
28181;BME280;15464;50.988;10.318;2024-02-04T04:20:59;99374.34;;;8.08;100.00
28181;BME280;15464;50.988;10.318;2024-02-04T04:23:26;99379.63;;;8.08;100.00
28181;BME280;15464;50.988;10.318;2024-02-04T04:25:52;99381.53;;;8.06;100.00
28181;BME280;15464;50.988;10.318;2024-02-04T04:28:19;99385.34;;;8.02;100.00
28181;BME280;15464;50.988;10.318;2024-02-04T04:30:46;99376.25;;;8.06;100.00
28181;BME280;15464;50.988;10.318;2024-02-04T04:33:13;99376.66;;;8.00;100.00
28181;BME280;15464;50.988;10.318;2024-02-04T04:35:40;99365.69;;;8.06;100.00
28181;BME280;15464;50.988;10.318;2024-02-04T04:38:06;99374.56;;;8.05;100.00
28181;BME280;15464;50.988;10.318;2024-02-04T04:40:33;99362.50;;;8.01;100.00
28181;BME280;15464;50.988;10.318;2024-02-04T04:43:00;99359.53;;;8.06;100.00
28181;BME280;15464;50.988;10.318;2024-02-04T04:45:26;99367.47;;;8.06;100.00
28181;BME280;15464;50.988;10.318;2024-02-04T04:47:53;99362.19;;;8.06;100.00
28181;BME280;15464;50.988;10.318;2024-02-04T04:50:21;99353.63;;;8.02;100.00
28181;BME280;15464;50.988;10.318;2024-02-04T04:52:47;99341.19;;;8.04;100.00
28181;BME280;15464;50.988;10.318;2024-02-04T04:55:14;99338.63;;;8.03;100.00
28181;BME280;15464;50.988;10.318;2024-02-04T04:57:41;99342.13;;;8.03;100.00
28181;BME280;15464;50.988;10.318;2024-02-04T05:00:08;99333.97;;;8.06;100.00
28181;BME280;15464;50.988;10.318;2024-02-04T05:02:36;99337.78;;;8.02;100.00
28181;BME280;15464;50.988;10.318;2024-02-04T05:05:03;99343.81;;;8.04;100.00
28181;BME280;15464;50.988;10.318;2024-02-04T05:07:30;99337.38;;;8.08;100.00
28181;BME280;15464;50.988;10.318;2024-02-04T05:09:57;99330.38;;;8.07;100.00
28181;BME280;15464;50.988;10.318;2024-02-04T05:12:24;99345.28;;;8.08;100.00
28181;BME280;15464;50.988;10.318;2024-02-04T05:14:51;99332.69;;;8.12;100.00
28181;BME280;15464;50.988;10.318;2024-02-04T05:17:17;99341.91;;;8.06;100.00
28181;BME280;15464;50.988;10.318;2024-02-04T05:19:44;99332.50;;;8.02;100.00
28181;BME280;15464;50.988;10.318;2024-02-04T05:22:11;99327.31;;;8.01;100.00
28181;BME280;15464;50.988;10.318;2024-02-04T05:24:38;99332.72;;;7.99;100.00
28181;BME280;15464;50.988;10.318;2024-02-04T05:27:05;99330.81;;;8.01;100.00
28181;BME280;15464;50.988;10.318;2024-02-04T05:29:31;99335.16;;;8.02;100.00
28181;BME280;15464;50.988;10.318;2024-02-04T05:31:58;99335.69;;;8.07;100.00
28181;BME280;15464;50.988;10.318;2024-02-04T05:34:25;99338.22;;;8.09;100.00
28181;BME280;15464;50.988;10.318;2024-02-04T05:36:52;99323.53;;;8.18;100.00
28181;BME280;15464;50.988;10.318;2024-02-04T05:39:19;99338.63;;;8.16;100.00
28181;BME280;15464;50.988;10.318;2024-02-04T05:41:45;99333.13;;;8.19;100.00
28181;BME280;15464;50.988;10.318;2024-02-04T05:44:13;99314.75;;;8.17;100.00
28181;BME280;15464;50.988;10.318;2024-02-04T05:46:39;99328.06;;;8.16;100.00
28181;BME280;15464;50.988;10.318;2024-02-04T05:49:07;99326.59;;;8.12;100.00
28181;BME280;15464;50.988;10.318;2024-02-04T05:51:41;99333.69;;;8.11;100.00
28181;BME280;15464;50.988;10.318;2024-02-04T05:54:08;99338.00;;;8.12;100.00
28181;BME280;15464;50.988;10.318;2024-02-04T05:56:35;99336.09;;;8.14;100.00
28181;BME280;15464;50.988;10.318;2024-02-04T05:59:02;99347.94;;;8.08;100.00
28181;BME280;15464;50.988;10.318;2024-02-04T06:01:29;99340.97;;;8.07;100.00
28181;BME280;15464;50.988;10.318;2024-02-04T06:03:55;99345.53;;;8.05;100.00
28181;BME280;15464;50.988;10.318;2024-02-04T06:06:22;99365.59;;;8.08;100.00
28181;BME280;15464;50.988;10.318;2024-02-04T06:08:49;99358.50;;;8.08;100.00
28181;BME280;15464;50.988;10.318;2024-02-04T06:11:16;99367.19;;;8.10;100.00
28181;BME280;15464;50.988;10.318;2024-02-04T06:13:44;99370.78;;;8.09;100.00
28181;BME280;15464;50.988;10.318;2024-02-04T06:16:11;99362.94;;;8.08;100.00
28181;BME280;15464;50.988;10.318;2024-02-04T06:18:41;99364.72;;;8.07;100.00
28181;BME280;15464;50.988;10.318;2024-02-04T06:21:08;99360.53;;;8.05;100.00
28181;BME280;15464;50.988;10.318;2024-02-04T06:23:34;99360.63;;;8.03;100.00
28181;BME280;15464;50.988;10.318;2024-02-04T06:26:02;99343.06;;;8.02;100.00
28181;BME280;15464;50.988;10.318;2024-02-04T06:28:29;99351.84;;;8.03;100.00
28181;BME280;15464;50.988;10.318;2024-02-04T06:30:56;99343.50;;;8.09;100.00
28181;BME280;15464;50.988;10.318;2024-02-04T06:33:23;99356.81;;;8.07;100.00
28181;BME280;15464;50.988;10.318;2024-02-04T06:35:52;99360.19;;;8.09;100.00
28181;BME280;15464;50.988;10.318;2024-02-04T06:38:18;99347.94;;;8.08;100.00
28181;BME280;15464;50.988;10.318;2024-02-04T06:40:45;99340.63;;;8.12;100.00
28181;BME280;15464;50.988;10.318;2024-02-04T06:43:12;99333.03;;;8.07;100.00
28181;BME280;15464;50.988;10.318;2024-02-04T06:45:39;99344.13;;;8.13;100.00
28181;BME280;15464;50.988;10.318;2024-02-04T06:48:07;99357.22;;;8.14;100.00
28181;BME280;15464;50.988;10.318;2024-02-04T06:50:34;99347.50;;;8.15;100.00
28181;BME280;15464;50.988;10.318;2024-02-04T06:53:01;99342.03;;;8.18;100.00
28181;BME280;15464;50.988;10.318;2024-02-04T06:55:28;99325.34;;;8.17;100.00
28181;BME280;15464;50.988;10.318;2024-02-04T06:57:54;99326.19;;;8.18;100.00
28181;BME280;15464;50.988;10.318;2024-02-04T07:00:21;99324.47;;;8.17;100.00
28181;BME280;15464;50.988;10.318;2024-02-04T07:02:48;99331.97;;;8.23;100.00
28181;BME280;15464;50.988;10.318;2024-02-04T07:05:15;99327.41;;;8.25;100.00
28181;BME280;15464;50.988;10.318;2024-02-04T07:07:42;99344.78;;;8.29;100.00
28181;BME280;15464;50.988;10.318;2024-02-04T07:10:10;99347.22;;;8.32;100.00
28181;BME280;15464;50.988;10.318;2024-02-04T07:12:37;99360.63;;;8.29;100.00
28181;BME280;15464;50.988;10.318;2024-02-04T07:15:04;99359.69;;;8.30;100.00
28181;BME280;15464;50.988;10.318;2024-02-04T07:17:31;99363.47;;;8.26;100.00
28181;BME280;15464;50.988;10.318;2024-02-04T07:19:57;99352.38;;;8.21;100.00
28181;BME280;15464;50.988;10.318;2024-02-04T07:22:25;99339.38;;;8.18;100.00
28181;BME280;15464;50.988;10.318;2024-02-04T07:24:51;99350.16;;;8.15;100.00
28181;BME280;15464;50.988;10.318;2024-02-04T07:27:18;99339.69;;;8.13;100.00
28181;BME280;15464;50.988;10.318;2024-02-04T07:29:45;99317.94;;;8.09;100.00
28181;BME280;15464;50.988;10.318;2024-02-04T07:32:14;99310.94;;;8.08;100.00
28181;BME280;15464;50.988;10.318;2024-02-04T07:34:41;99310.94;;;8.08;100.00
28181;BME280;15464;50.988;10.318;2024-02-04T07:37:08;99310.94;;;8.08;100.00
28181;BME280;15464;50.988;10.318;2024-02-04T07:39:35;99310.34;;;8.05;100.00
28181;BME280;15464;50.988;10.318;2024-02-04T07:42:02;99314.34;;;7.98;100.00
28181;BME280;15464;50.988;10.318;2024-02-04T07:44:29;99316.88;;;7.99;100.00
28181;BME280;15464;50.988;10.318;2024-02-04T07:46:56;99307.97;;;8.00;100.00
28181;BME280;15464;50.988;10.318;2024-02-04T07:49:23;99320.78;;;8.06;100.00
28181;BME280;15464;50.988;10.318;2024-02-04T07:51:49;99323.63;;;8.03;100.00
28181;BME280;15464;50.988;10.318;2024-02-04T07:54:16;99335.47;;;8.10;100.00
28181;BME280;15464;50.988;10.318;2024-02-04T07:56:43;99318.88;;;8.08;100.00
28181;BME280;15464;50.988;10.318;2024-02-04T07:59:10;99319.63;;;8.10;100.00
28181;BME280;15464;50.988;10.318;2024-02-04T08:01:39;99314.22;;;8.12;100.00
28181;BME280;15464;50.988;10.318;2024-02-04T08:04:06;99313.91;;;8.17;100.00
28181;BME280;15464;50.988;10.318;2024-02-04T08:06:35;99305.88;;;8.18;100.00
28181;BME280;15464;50.988;10.318;2024-02-04T08:09:03;99306.69;;;8.19;100.00
28181;BME280;15464;50.988;10.318;2024-02-04T08:11:30;99311.03;;;8.20;100.00
28181;BME280;15464;50.988;10.318;2024-02-04T08:13:56;99308.31;;;8.21;100.00
28181;BME280;15464;50.988;10.318;2024-02-04T08:16:23;99301.84;;;8.25;100.00
28181;BME280;15464;50.988;10.318;2024-02-04T08:18:50;99293.81;;;8.27;100.00
28181;BME280;15464;50.988;10.318;2024-02-04T08:21:17;99297.00;;;8.32;100.00
28181;BME280;15464;50.988;10.318;2024-02-04T08:23:44;99309.47;;;8.30;100.00
28181;BME280;15464;50.988;10.318;2024-02-04T08:26:11;99312.44;;;8.38;100.00
28181;BME280;15464;50.988;10.318;2024-02-04T08:28:37;99308.84;;;8.39;100.00
28181;BME280;15464;50.988;10.318;2024-02-04T08:31:04;99301.31;;;8.45;100.00
28181;BME280;15464;50.988;10.318;2024-02-04T08:33:31;99297.63;;;8.48;100.00
28181;BME280;15464;50.988;10.318;2024-02-04T08:35:58;99313.06;;;8.54;100.00
28181;BME280;15464;50.988;10.318;2024-02-04T08:38:25;99314.19;;;8.50;100.00
28181;BME280;15464;50.988;10.318;2024-02-04T08:40:51;99311.34;;;8.53;100.00
28181;BME280;15464;50.988;10.318;2024-02-04T08:43:18;99308.28;;;8.59;100.00
28181;BME280;15464;50.988;10.318;2024-02-04T08:45:45;99318.34;;;8.54;100.00
28181;BME280;15464;50.988;10.318;2024-02-04T08:48:12;99309.22;;;8.58;100.00
28181;BME280;15464;50.988;10.318;2024-02-04T08:50:39;99317.47;;;8.66;100.00
28181;BME280;15464;50.988;10.318;2024-02-04T08:53:06;99315.13;;;8.74;100.00
28181;BME280;15464;50.988;10.318;2024-02-04T08:55:32;99299.47;;;8.71;100.00
28181;BME280;15464;50.988;10.318;2024-02-04T08:57:59;99284.44;;;8.72;100.00
28181;BME280;15464;50.988;10.318;2024-02-04T09:00:26;99279.25;;;8.70;100.00
28181;BME280;15464;50.988;10.318;2024-02-04T09:02:52;99284.94;;;8.77;100.00
28181;BME280;15464;50.988;10.318;2024-02-04T09:05:19;99278.47;;;8.81;100.00
28181;BME280;15464;50.988;10.318;2024-02-04T09:07:46;99295.19;;;8.81;100.00
28181;BME280;15464;50.988;10.318;2024-02-04T09:10:13;99294.34;;;8.81;100.00
28181;BME280;15464;50.988;10.318;2024-02-04T09:12:40;99282.09;;;8.80;100.00
28181;BME280;15464;50.988;10.318;2024-02-04T09:15:07;99282.69;;;8.83;100.00
28181;BME280;15464;50.988;10.318;2024-02-04T09:17:34;99286.09;;;8.85;100.00
28181;BME280;15464;50.988;10.318;2024-02-04T09:20:01;99281.50;;;8.87;100.00
28181;BME280;15464;50.988;10.318;2024-02-04T09:22:29;99280.34;;;8.92;100.00
28181;BME280;15464;50.988;10.318;2024-02-04T09:24:56;99274.81;;;8.95;100.00
28181;BME280;15464;50.988;10.318;2024-02-04T09:27:23;99275.31;;;9.00;100.00
28181;BME280;15464;50.988;10.318;2024-02-04T09:29:50;99267.84;;;8.94;100.00
28181;BME280;15464;50.988;10.318;2024-02-04T09:32:16;99265.44;;;8.90;100.00
28181;BME280;15464;50.988;10.318;2024-02-04T09:34:44;99267.63;;;8.97;100.00
28181;BME280;15464;50.988;10.318;2024-02-04T09:37:12;99275.84;;;9.05;100.00
28181;BME280;15464;50.988;10.318;2024-02-04T09:39:39;99273.91;;;9.07;100.00
28181;BME280;15464;50.988;10.318;2024-02-04T09:42:06;99276.34;;;9.10;100.00
28181;BME280;15464;50.988;10.318;2024-02-04T09:44:33;99279.00;;;9.10;100.00
28181;BME280;15464;50.988;10.318;2024-02-04T09:47:02;99266.72;;;9.09;100.00
28181;BME280;15464;50.988;10.318;2024-02-04T09:49:30;99276.81;;;9.04;100.00
28181;BME280;15464;50.988;10.318;2024-02-04T09:51:59;99263.28;;;8.96;100.00
28181;BME280;15464;50.988;10.318;2024-02-04T09:54:34;99282.94;;;8.80;100.00
28181;BME280;15464;50.988;10.318;2024-02-04T09:57:04;99274.59;;;8.74;100.00
28181;BME280;15464;50.988;10.318;2024-02-04T09:59:31;99280.44;;;8.66;100.00
28181;BME280;15464;50.988;10.318;2024-02-04T10:01:58;99270.72;;;8.67;100.00
28181;BME280;15464;50.988;10.318;2024-02-04T10:04:25;99267.94;;;8.68;100.00
28181;BME280;15464;50.988;10.318;2024-02-04T10:06:52;99274.94;;;8.57;100.00
28181;BME280;15464;50.988;10.318;2024-02-04T10:09:21;99274.78;;;8.47;100.00
28181;BME280;15464;50.988;10.318;2024-02-04T10:11:48;99273.31;;;8.43;100.00
28181;BME280;15464;50.988;10.318;2024-02-04T10:14:15;99271.19;;;8.48;100.00
28181;BME280;15464;50.988;10.318;2024-02-04T10:16:43;99263.13;;;8.49;100.00
28181;BME280;15464;50.988;10.318;2024-02-04T10:19:11;99254.88;;;8.54;100.00
28181;BME280;15464;50.988;10.318;2024-02-04T10:21:38;99260.88;;;8.56;100.00
28181;BME280;15464;50.988;10.318;2024-02-04T10:24:06;99260.38;;;8.51;100.00
28181;BME280;15464;50.988;10.318;2024-02-04T10:26:34;99258.69;;;8.50;100.00
28181;BME280;15464;50.988;10.318;2024-02-04T10:29:03;99251.28;;;8.55;100.00
28181;BME280;15464;50.988;10.318;2024-02-04T10:31:30;99255.09;;;8.51;100.00
28181;BME280;15464;50.988;10.318;2024-02-04T10:33:57;99245.59;;;8.48;100.00
28181;BME280;15464;50.988;10.318;2024-02-04T10:36:24;99249.28;;;8.46;100.00
28181;BME280;15464;50.988;10.318;2024-02-04T10:38:50;99238.81;;;8.44;100.00
28181;BME280;15464;50.988;10.318;2024-02-04T10:41:17;99235.69;;;8.39;100.00
28181;BME280;15464;50.988;10.318;2024-02-04T10:43:45;99245.19;;;8.42;100.00
28181;BME280;15464;50.988;10.318;2024-02-04T10:46:19;99228.59;;;8.40;100.00
28181;BME280;15464;50.988;10.318;2024-02-04T10:48:55;99225.00;;;8.41;100.00
28181;BME280;15464;50.988;10.318;2024-02-04T10:51:26;99221.28;;;8.43;100.00
28181;BME280;15464;50.988;10.318;2024-02-04T10:53:55;99223.91;;;8.43;100.00
28181;BME280;15464;50.988;10.318;2024-02-04T10:56:34;99217.91;;;8.41;100.00
28181;BME280;15464;50.988;10.318;2024-02-04T10:59:03;99204.66;;;8.54;100.00
28181;BME280;15464;50.988;10.318;2024-02-04T11:01:31;99205.16;;;8.59;100.00
28181;BME280;15464;50.988;10.318;2024-02-04T11:03:59;99204.09;;;8.62;100.00
28181;BME280;15464;50.988;10.318;2024-02-04T11:06:27;99207.81;;;8.59;100.00
28181;BME280;15464;50.988;10.318;2024-02-04T11:08:55;99196.03;;;8.63;100.00
28181;BME280;15464;50.988;10.318;2024-02-04T11:11:24;99196.28;;;8.60;100.00
28181;BME280;15464;50.988;10.318;2024-02-04T11:13:56;99180.91;;;8.65;100.00
28181;BME280;15464;50.988;10.318;2024-02-04T11:27:53;99181.47;;;8.58;100.00
28181;BME280;15464;50.988;10.318;2024-02-04T11:30:20;99178.47;;;8.62;100.00
28181;BME280;15464;50.988;10.318;2024-02-04T11:32:48;99186.75;;;8.58;100.00
28181;BME280;15464;50.988;10.318;2024-02-04T11:35:15;99170.69;;;8.61;100.00
28181;BME280;15464;50.988;10.318;2024-02-04T11:37:42;99177.03;;;8.58;100.00
28181;BME280;15464;50.988;10.318;2024-02-04T11:40:14;99179.78;;;8.57;100.00
28181;BME280;15464;50.988;10.318;2024-02-04T11:42:42;99179.91;;;8.55;100.00
28181;BME280;15464;50.988;10.318;2024-02-04T11:45:11;99179.78;;;8.57;100.00
28181;BME280;15464;50.988;10.318;2024-02-04T11:47:40;99175.72;;;8.64;100.00
28181;BME280;15464;50.988;10.318;2024-02-04T11:50:08;99184.41;;;8.66;100.00
28181;BME280;15464;50.988;10.318;2024-02-04T11:52:37;99190.28;;;8.69;100.00
28181;BME280;15464;50.988;10.318;2024-02-04T11:55:05;99193.19;;;8.66;100.00
28181;BME280;15464;50.988;10.318;2024-02-04T11:57:34;99200.72;;;8.60;100.00
28181;BME280;15464;50.988;10.318;2024-02-04T12:00:02;99193.19;;;8.66;100.00
28181;BME280;15464;50.988;10.318;2024-02-04T12:02:32;99191.69;;;8.62;100.00
28181;BME280;15464;50.988;10.318;2024-02-04T12:05:00;99192.69;;;8.61;100.00
28181;BME280;15464;50.988;10.318;2024-02-04T12:07:27;99190.50;;;8.55;100.00
28181;BME280;15464;50.988;10.318;2024-02-04T12:09:56;99187.59;;;8.58;100.00
28181;BME280;15464;50.988;10.318;2024-02-04T12:12:24;99183.41;;;8.56;100.00
28181;BME280;15464;50.988;10.318;2024-02-04T12:14:52;99192.38;;;8.53;100.00
28181;BME280;15464;50.988;10.318;2024-02-04T12:17:19;99193.34;;;8.52;100.00
28181;BME280;15464;50.988;10.318;2024-02-04T12:19:46;99208.59;;;8.48;100.00
28181;BME280;15464;50.988;10.318;2024-02-04T12:22:15;99196.94;;;8.51;100.00
28181;BME280;15464;50.988;10.318;2024-02-04T12:24:41;99196.94;;;8.51;100.00
28181;BME280;15464;50.988;10.318;2024-02-04T12:27:08;99183.00;;;8.49;100.00
28181;BME280;15464;50.988;10.318;2024-02-04T12:29:35;99176.41;;;8.55;100.00
28181;BME280;15464;50.988;10.318;2024-02-04T12:32:02;99178.72;;;8.59;100.00
28181;BME280;15464;50.988;10.318;2024-02-04T12:34:30;99174.66;;;8.66;100.00
28181;BME280;15464;50.988;10.318;2024-02-04T12:37:00;99174.44;;;8.69;100.00
28181;BME280;15464;50.988;10.318;2024-02-04T12:39:28;99169.78;;;8.73;100.00
28181;BME280;15464;50.988;10.318;2024-02-04T12:41:55;99164.03;;;8.79;100.00
28181;BME280;15464;50.988;10.318;2024-02-04T12:44:22;99145.16;;;8.83;100.00
28181;BME280;15464;50.988;10.318;2024-02-04T12:46:52;99156.22;;;8.88;100.00
28181;BME280;15464;50.988;10.318;2024-02-04T12:49:20;99140.75;;;8.95;100.00
28181;BME280;15464;50.988;10.318;2024-02-04T12:51:49;99140.53;;;8.98;100.00
28181;BME280;15464;50.988;10.318;2024-02-04T12:54:18;99152.91;;;8.98;100.00
28181;BME280;15464;50.988;10.318;2024-02-04T12:56:50;99148.31;;;9.00;100.00
28181;BME280;15464;50.988;10.318;2024-02-04T12:59:24;99148.97;;;9.03;100.00
28181;BME280;15464;50.988;10.318;2024-02-04T13:01:53;99141.41;;;9.10;100.00
28181;BME280;15464;50.988;10.318;2024-02-04T13:04:21;99151.25;;;9.08;100.00
28181;BME280;15464;50.988;10.318;2024-02-04T13:06:48;99151.97;;;9.10;100.00
28181;BME280;15464;50.988;10.318;2024-02-04T13:09:15;99160.13;;;9.07;100.00
28181;BME280;15464;50.988;10.318;2024-02-04T13:11:43;99159.44;;;9.05;100.00